sensor_id;sensor_type;location;lat;lon;timestamp;P1;durP1;ratioP1;P2;durP2;ratioP2
55776;SDS011;54079;44.540;18.784;2022-07-09T00:02:04;3.13;;;1.75;;
55776;SDS011;54079;44.540;18.784;2022-07-09T00:04:30;2.67;;;2.10;;
55776;SDS011;54079;44.540;18.784;2022-07-09T00:06:56;4.20;;;1.90;;
55776;SDS011;54079;44.540;18.784;2022-07-09T00:09:23;4.47;;;2.05;;
55776;SDS011;54079;44.540;18.784;2022-07-09T00:11:49;5.88;;;2.70;;
55776;SDS011;54079;44.540;18.784;2022-07-09T00:14:17;3.50;;;1.85;;
55776;SDS011;54079;44.540;18.784;2022-07-09T00:16:43;8.57;;;1.50;;
55776;SDS011;54079;44.540;18.784;2022-07-09T00:19:09;2.30;;;2.10;;
55776;SDS011;54079;44.540;18.784;2022-07-09T00:21:35;1.30;;;1.20;;
55776;SDS011;54079;44.540;18.784;2022-07-09T00:24:01;3.00;;;1.38;;
55776;SDS011;54079;44.540;18.784;2022-07-09T00:26:27;2.33;;;1.73;;
55776;SDS011;54079;44.540;18.784;2022-07-09T00:28:53;3.33;;;1.40;;
55776;SDS011;54079;44.540;18.784;2022-07-09T00:31:19;2.50;;;1.90;;
55776;SDS011;54079;44.540;18.784;2022-07-09T00:33:45;2.03;;;1.38;;
55776;SDS011;54079;44.540;18.784;2022-07-09T00:36:11;1.80;;;1.40;;
55776;SDS011;54079;44.540;18.784;2022-07-09T00:38:36;3.13;;;1.75;;
55776;SDS011;54079;44.540;18.784;2022-07-09T00:41:03;4.20;;;1.38;;
55776;SDS011;54079;44.540;18.784;2022-07-09T00:43:29;4.72;;;1.70;;
55776;SDS011;54079;44.540;18.784;2022-07-09T00:45:56;3.25;;;1.80;;
55776;SDS011;54079;44.540;18.784;2022-07-09T00:48:22;3.33;;;2.10;;
55776;SDS011;54079;44.540;18.784;2022-07-09T00:50:48;2.25;;;1.60;;
55776;SDS011;54079;44.540;18.784;2022-07-09T00:53:15;2.30;;;1.48;;
55776;SDS011;54079;44.540;18.784;2022-07-09T00:55:43;3.47;;;2.08;;
55776;SDS011;54079;44.540;18.784;2022-07-09T00:58:12;2.25;;;1.40;;
55776;SDS011;54079;44.540;18.784;2022-07-09T01:00:41;4.30;;;1.52;;
55776;SDS011;54079;44.540;18.784;2022-07-09T01:03:08;4.50;;;2.00;;
55776;SDS011;54079;44.540;18.784;2022-07-09T01:05:34;1.60;;;1.45;;
55776;SDS011;54079;44.540;18.784;2022-07-09T01:08:04;2.83;;;1.13;;
55776;SDS011;54079;44.540;18.784;2022-07-09T01:10:32;1.77;;;1.23;;
55776;SDS011;54079;44.540;18.784;2022-07-09T01:12:59;2.50;;;1.63;;
55776;SDS011;54079;44.540;18.784;2022-07-09T01:15:25;3.63;;;1.42;;
55776;SDS011;54079;44.540;18.784;2022-07-09T01:17:51;2.75;;;1.20;;
55776;SDS011;54079;44.540;18.784;2022-07-09T01:20:21;7.72;;;1.88;;
55776;SDS011;54079;44.540;18.784;2022-07-09T01:22:48;1.15;;;0.95;;
55776;SDS011;54079;44.540;18.784;2022-07-09T01:25:15;2.97;;;1.70;;
55776;SDS011;54079;44.540;18.784;2022-07-09T01:27:42;3.17;;;1.63;;
55776;SDS011;54079;44.540;18.784;2022-07-09T01:30:09;3.15;;;1.23;;
55776;SDS011;54079;44.540;18.784;2022-07-09T01:32:35;3.80;;;1.55;;
55776;SDS011;54079;44.540;18.784;2022-07-09T01:35:02;1.50;;;1.35;;
55776;SDS011;54079;44.540;18.784;2022-07-09T01:37:28;3.50;;;1.58;;
55776;SDS011;54079;44.540;18.784;2022-07-09T01:39:54;4.55;;;2.97;;
55776;SDS011;54079;44.540;18.784;2022-07-09T01:42:20;3.35;;;2.90;;
55776;SDS011;54079;44.540;18.784;2022-07-09T01:44:46;3.67;;;3.38;;
55776;SDS011;54079;44.540;18.784;2022-07-09T01:47:13;6.13;;;4.68;;
55776;SDS011;54079;44.540;18.784;2022-07-09T01:49:42;4.45;;;2.85;;
55776;SDS011;54079;44.540;18.784;2022-07-09T01:52:09;4.72;;;3.80;;
55776;SDS011;54079;44.540;18.784;2022-07-09T01:54:35;6.50;;;3.83;;
55776;SDS011;54079;44.540;18.784;2022-07-09T01:57:01;5.25;;;3.70;;
55776;SDS011;54079;44.540;18.784;2022-07-09T01:59:27;4.20;;;2.30;;
55776;SDS011;54079;44.540;18.784;2022-07-09T02:01:53;4.28;;;3.58;;
55776;SDS011;54079;44.540;18.784;2022-07-09T02:04:19;11.02;;;9.75;;
55776;SDS011;54079;44.540;18.784;2022-07-09T02:06:45;4.05;;;3.65;;
55776;SDS011;54079;44.540;18.784;2022-07-09T02:09:11;4.70;;;4.20;;
55776;SDS011;54079;44.540;18.784;2022-07-09T02:11:37;4.40;;;3.35;;
55776;SDS011;54079;44.540;18.784;2022-07-09T02:14:02;3.30;;;2.47;;
55776;SDS011;54079;44.540;18.784;2022-07-09T02:16:29;3.03;;;2.17;;
55776;SDS011;54079;44.540;18.784;2022-07-09T02:18:55;4.30;;;2.45;;
55776;SDS011;54079;44.540;18.784;2022-07-09T02:21:21;4.72;;;3.45;;
55776;SDS011;54079;44.540;18.784;2022-07-09T02:23:47;4.53;;;2.92;;
55776;SDS011;54079;44.540;18.784;2022-07-09T02:26:14;1.92;;;1.83;;
55776;SDS011;54079;44.540;18.784;2022-07-09T02:28:40;2.55;;;1.63;;
55776;SDS011;54079;44.540;18.784;2022-07-09T02:31:06;3.47;;;1.55;;
55776;SDS011;54079;44.540;18.784;2022-07-09T02:33:32;5.22;;;3.20;;
55776;SDS011;54079;44.540;18.784;2022-07-09T02:35:58;3.90;;;2.65;;
55776;SDS011;54079;44.540;18.784;2022-07-09T02:38:24;2.13;;;1.98;;
55776;SDS011;54079;44.540;18.784;2022-07-09T02:40:50;5.45;;;3.00;;
55776;SDS011;54079;44.540;18.784;2022-07-09T02:43:16;2.00;;;1.58;;
55776;SDS011;54079;44.540;18.784;2022-07-09T02:45:42;4.50;;;2.80;;
55776;SDS011;54079;44.540;18.784;2022-07-09T02:48:08;4.63;;;2.40;;
55776;SDS011;54079;44.540;18.784;2022-07-09T02:50:34;4.28;;;2.00;;
55776;SDS011;54079;44.540;18.784;2022-07-09T02:52:59;4.47;;;2.30;;
55776;SDS011;54079;44.540;18.784;2022-07-09T02:55:25;2.45;;;2.25;;
55776;SDS011;54079;44.540;18.784;2022-07-09T02:57:51;3.08;;;2.20;;
55776;SDS011;54079;44.540;18.784;2022-07-09T03:00:18;2.63;;;2.25;;
55776;SDS011;54079;44.540;18.784;2022-07-09T03:02:44;3.33;;;2.30;;
55776;SDS011;54079;44.540;18.784;2022-07-09T03:05:10;1.90;;;1.67;;
55776;SDS011;54079;44.540;18.784;2022-07-09T03:07:35;5.05;;;2.17;;
55776;SDS011;54079;44.540;18.784;2022-07-09T03:10:02;2.10;;;1.73;;
55776;SDS011;54079;44.540;18.784;2022-07-09T03:12:28;3.50;;;2.05;;
55776;SDS011;54079;44.540;18.784;2022-07-09T03:14:54;3.17;;;1.90;;
55776;SDS011;54079;44.540;18.784;2022-07-09T03:17:20;2.63;;;1.80;;
55776;SDS011;54079;44.540;18.784;2022-07-09T03:19:46;3.35;;;2.05;;
55776;SDS011;54079;44.540;18.784;2022-07-09T03:22:12;4.38;;;2.33;;
55776;SDS011;54079;44.540;18.784;2022-07-09T03:24:38;2.75;;;1.80;;
55776;SDS011;54079;44.540;18.784;2022-07-09T03:27:04;2.05;;;1.60;;
55776;SDS011;54079;44.540;18.784;2022-07-09T03:29:30;4.65;;;2.22;;
55776;SDS011;54079;44.540;18.784;2022-07-09T03:31:56;2.78;;;2.00;;
55776;SDS011;54079;44.540;18.784;2022-07-09T03:34:22;5.95;;;1.90;;
55776;SDS011;54079;44.540;18.784;2022-07-09T03:36:48;2.55;;;1.45;;
55776;SDS011;54079;44.540;18.784;2022-07-09T03:39:14;3.75;;;2.05;;
55776;SDS011;54079;44.540;18.784;2022-07-09T03:41:40;2.35;;;1.90;;
55776;SDS011;54079;44.540;18.784;2022-07-09T03:44:06;2.28;;;2.08;;
55776;SDS011;54079;44.540;18.784;2022-07-09T03:46:32;2.75;;;1.48;;
55776;SDS011;54079;44.540;18.784;2022-07-09T03:48:58;3.92;;;1.67;;
55776;SDS011;54079;44.540;18.784;2022-07-09T03:51:24;4.00;;;1.45;;
55776;SDS011;54079;44.540;18.784;2022-07-09T03:53:50;4.60;;;1.52;;
55776;SDS011;54079;44.540;18.784;2022-07-09T03:56:16;2.90;;;2.03;;
55776;SDS011;54079;44.540;18.784;2022-07-09T03:58:45;2.33;;;1.98;;
55776;SDS011;54079;44.540;18.784;2022-07-09T04:01:11;1.90;;;1.70;;
55776;SDS011;54079;44.540;18.784;2022-07-09T04:03:37;2.40;;;1.65;;
55776;SDS011;54079;44.540;18.784;2022-07-09T04:06:03;2.33;;;1.58;;
55776;SDS011;54079;44.540;18.784;2022-07-09T04:08:29;2.33;;;1.63;;
55776;SDS011;54079;44.540;18.784;2022-07-09T04:10:55;2.22;;;1.83;;
55776;SDS011;54079;44.540;18.784;2022-07-09T04:13:20;3.75;;;1.75;;
55776;SDS011;54079;44.540;18.784;2022-07-09T04:15:46;3.20;;;1.70;;
55776;SDS011;54079;44.540;18.784;2022-07-09T04:18:13;3.22;;;1.50;;
55776;SDS011;54079;44.540;18.784;2022-07-09T04:20:42;2.20;;;1.70;;
55776;SDS011;54079;44.540;18.784;2022-07-09T04:23:09;1.90;;;1.70;;
55776;SDS011;54079;44.540;18.784;2022-07-09T04:25:35;2.70;;;1.58;;
55776;SDS011;54079;44.540;18.784;2022-07-09T04:28:01;4.28;;;1.70;;
55776;SDS011;54079;44.540;18.784;2022-07-09T04:30:27;2.03;;;1.70;;
55776;SDS011;54079;44.540;18.784;2022-07-09T04:32:53;2.25;;;1.50;;
55776;SDS011;54079;44.540;18.784;2022-07-09T04:35:19;2.13;;;1.60;;
55776;SDS011;54079;44.540;18.784;2022-07-09T04:37:45;3.28;;;1.60;;
55776;SDS011;54079;44.540;18.784;2022-07-09T04:40:11;2.78;;;0.90;;
55776;SDS011;54079;44.540;18.784;2022-07-09T04:42:37;3.17;;;0.93;;
55776;SDS011;54079;44.540;18.784;2022-07-09T04:45:03;1.65;;;1.15;;
55776;SDS011;54079;44.540;18.784;2022-07-09T04:47:29;4.00;;;1.45;;
55776;SDS011;54079;44.540;18.784;2022-07-09T04:49:57;3.63;;;1.67;;
55776;SDS011;54079;44.540;18.784;2022-07-09T04:52:23;1.75;;;1.20;;
55776;SDS011;54079;44.540;18.784;2022-07-09T04:54:51;4.18;;;1.30;;
55776;SDS011;54079;44.540;18.784;2022-07-09T04:57:18;1.40;;;1.10;;
55776;SDS011;54079;44.540;18.784;2022-07-09T04:59:44;2.17;;;1.00;;
55776;SDS011;54079;44.540;18.784;2022-07-09T05:02:10;2.15;;;1.23;;
55776;SDS011;54079;44.540;18.784;2022-07-09T05:04:36;2.67;;;1.48;;
55776;SDS011;54079;44.540;18.784;2022-07-09T05:07:02;2.03;;;1.42;;
55776;SDS011;54079;44.540;18.784;2022-07-09T05:09:28;2.17;;;1.40;;
55776;SDS011;54079;44.540;18.784;2022-07-09T05:11:54;1.60;;;1.20;;
55776;SDS011;54079;44.540;18.784;2022-07-09T05:14:20;2.67;;;1.23;;
55776;SDS011;54079;44.540;18.784;2022-07-09T05:16:47;3.60;;;2.08;;
55776;SDS011;54079;44.540;18.784;2022-07-09T05:19:13;4.47;;;1.42;;
55776;SDS011;54079;44.540;18.784;2022-07-09T05:21:39;2.17;;;1.60;;
55776;SDS011;54079;44.540;18.784;2022-07-09T05:24:06;2.90;;;1.15;;
55776;SDS011;54079;44.540;18.784;2022-07-09T05:26:33;3.40;;;1.65;;
55776;SDS011;54079;44.540;18.784;2022-07-09T05:29:00;3.10;;;1.67;;
55776;SDS011;54079;44.540;18.784;2022-07-09T05:31:27;3.55;;;1.27;;
55776;SDS011;54079;44.540;18.784;2022-07-09T05:33:53;2.80;;;1.27;;
55776;SDS011;54079;44.540;18.784;2022-07-09T05:36:19;1.77;;;1.20;;
55776;SDS011;54079;44.540;18.784;2022-07-09T05:38:45;1.90;;;1.13;;
55776;SDS011;54079;44.540;18.784;2022-07-09T05:41:12;3.17;;;1.40;;
55776;SDS011;54079;44.540;18.784;2022-07-09T05:43:40;3.38;;;1.35;;
55776;SDS011;54079;44.540;18.784;2022-07-09T05:46:06;4.35;;;1.42;;
55776;SDS011;54079;44.540;18.784;2022-07-09T05:48:32;1.50;;;1.13;;
55776;SDS011;54079;44.540;18.784;2022-07-09T05:50:58;2.30;;;1.25;;
55776;SDS011;54079;44.540;18.784;2022-07-09T05:53:24;3.50;;;1.60;;
55776;SDS011;54079;44.540;18.784;2022-07-09T05:55:50;2.75;;;1.45;;
55776;SDS011;54079;44.540;18.784;2022-07-09T05:58:16;1.95;;;1.40;;
55776;SDS011;54079;44.540;18.784;2022-07-09T06:00:42;3.22;;;1.73;;
55776;SDS011;54079;44.540;18.784;2022-07-09T06:03:08;4.20;;;1.60;;
55776;SDS011;54079;44.540;18.784;2022-07-09T06:05:33;2.53;;;1.60;;
55776;SDS011;54079;44.540;18.784;2022-07-09T06:08:00;4.57;;;2.20;;
55776;SDS011;54079;44.540;18.784;2022-07-09T06:10:25;4.60;;;4.15;;
55776;SDS011;54079;44.540;18.784;2022-07-09T06:12:51;2.95;;;2.67;;
55776;SDS011;54079;44.540;18.784;2022-07-09T06:15:17;4.03;;;3.03;;
55776;SDS011;54079;44.540;18.784;2022-07-09T06:17:43;4.90;;;2.13;;
55776;SDS011;54079;44.540;18.784;2022-07-09T06:20:09;5.45;;;3.58;;
55776;SDS011;54079;44.540;18.784;2022-07-09T06:22:35;3.75;;;2.83;;
55776;SDS011;54079;44.540;18.784;2022-07-09T06:25:01;20.90;;;18.63;;
55776;SDS011;54079;44.540;18.784;2022-07-09T06:27:27;19.90;;;16.88;;
55776;SDS011;54079;44.540;18.784;2022-07-09T06:29:53;4.18;;;3.65;;
55776;SDS011;54079;44.540;18.784;2022-07-09T06:32:19;2.63;;;2.25;;
55776;SDS011;54079;44.540;18.784;2022-07-09T06:34:45;6.28;;;1.83;;
55776;SDS011;54079;44.540;18.784;2022-07-09T06:37:11;5.20;;;3.80;;
55776;SDS011;54079;44.540;18.784;2022-07-09T06:39:37;2.83;;;1.83;;
55776;SDS011;54079;44.540;18.784;2022-07-09T06:42:14;3.30;;;2.15;;
55776;SDS011;54079;44.540;18.784;2022-07-09T06:44:41;1.67;;;1.35;;
55776;SDS011;54079;44.540;18.784;2022-07-09T06:47:08;12.85;;;9.85;;
55776;SDS011;54079;44.540;18.784;2022-07-09T06:49:34;4.63;;;2.83;;
55776;SDS011;54079;44.540;18.784;2022-07-09T06:52:00;3.85;;;2.00;;
55776;SDS011;54079;44.540;18.784;2022-07-09T06:54:26;9.93;;;3.35;;
55776;SDS011;54079;44.540;18.784;2022-07-09T06:56:52;2.50;;;1.70;;
55776;SDS011;54079;44.540;18.784;2022-07-09T06:59:19;5.03;;;3.40;;
55776;SDS011;54079;44.540;18.784;2022-07-09T07:01:47;3.13;;;2.80;;
55776;SDS011;54079;44.540;18.784;2022-07-09T07:04:13;7.32;;;4.47;;
55776;SDS011;54079;44.540;18.784;2022-07-09T07:06:40;4.15;;;3.20;;
55776;SDS011;54079;44.540;18.784;2022-07-09T07:09:06;3.22;;;2.50;;
55776;SDS011;54079;44.540;18.784;2022-07-09T07:11:33;2.92;;;1.73;;
55776;SDS011;54079;44.540;18.784;2022-07-09T07:13:59;2.60;;;1.40;;
55776;SDS011;54079;44.540;18.784;2022-07-09T07:16:25;4.32;;;3.15;;
55776;SDS011;54079;44.540;18.784;2022-07-09T07:18:51;3.40;;;2.15;;
55776;SDS011;54079;44.540;18.784;2022-07-09T07:21:18;3.17;;;2.10;;
55776;SDS011;54079;44.540;18.784;2022-07-09T07:23:44;4.10;;;2.38;;
55776;SDS011;54079;44.540;18.784;2022-07-09T07:26:10;4.70;;;3.72;;
55776;SDS011;54079;44.540;18.784;2022-07-09T07:28:36;4.20;;;1.90;;
55776;SDS011;54079;44.540;18.784;2022-07-09T07:31:02;3.03;;;0.95;;
55776;SDS011;54079;44.540;18.784;2022-07-09T07:33:28;3.65;;;1.83;;
55776;SDS011;54079;44.540;18.784;2022-07-09T07:35:54;2.00;;;1.20;;
55776;SDS011;54079;44.540;18.784;2022-07-09T07:38:20;3.75;;;1.30;;
55776;SDS011;54079;44.540;18.784;2022-07-09T07:40:45;2.08;;;1.38;;
55776;SDS011;54079;44.540;18.784;2022-07-09T07:43:12;3.28;;;1.50;;
55776;SDS011;54079;44.540;18.784;2022-07-09T07:45:38;3.75;;;1.75;;
55776;SDS011;54079;44.540;18.784;2022-07-09T07:48:04;4.22;;;2.00;;
55776;SDS011;54079;44.540;18.784;2022-07-09T07:50:30;3.90;;;1.60;;
55776;SDS011;54079;44.540;18.784;2022-07-09T07:52:57;2.60;;;1.50;;
55776;SDS011;54079;44.540;18.784;2022-07-09T07:55:23;3.15;;;1.80;;
55776;SDS011;54079;44.540;18.784;2022-07-09T07:57:49;3.42;;;1.98;;
55776;SDS011;54079;44.540;18.784;2022-07-09T08:00:15;3.55;;;1.45;;
55776;SDS011;54079;44.540;18.784;2022-07-09T08:02:41;3.00;;;1.60;;
55776;SDS011;54079;44.540;18.784;2022-07-09T08:05:07;2.53;;;1.85;;
55776;SDS011;54079;44.540;18.784;2022-07-09T08:07:33;2.33;;;1.58;;
55776;SDS011;54079;44.540;18.784;2022-07-09T08:09:59;2.60;;;1.50;;
55776;SDS011;54079;44.540;18.784;2022-07-09T08:12:25;2.03;;;1.30;;
55776;SDS011;54079;44.540;18.784;2022-07-09T08:14:51;2.22;;;1.60;;
55776;SDS011;54079;44.540;18.784;2022-07-09T08:17:17;1.83;;;1.58;;
55776;SDS011;54079;44.540;18.784;2022-07-09T08:19:43;2.30;;;1.63;;
55776;SDS011;54079;44.540;18.784;2022-07-09T08:22:09;1.60;;;1.27;;
55776;SDS011;54079;44.540;18.784;2022-07-09T08:24:35;3.08;;;1.33;;
55776;SDS011;54079;44.540;18.784;2022-07-09T08:27:00;2.03;;;0.73;;
55776;SDS011;54079;44.540;18.784;2022-07-09T08:29:26;3.53;;;1.40;;
55776;SDS011;54079;44.540;18.784;2022-07-09T08:31:52;2.15;;;1.27;;
55776;SDS011;54079;44.540;18.784;2022-07-09T08:34:18;3.35;;;1.20;;
55776;SDS011;54079;44.540;18.784;2022-07-09T08:36:44;2.97;;;1.23;;
55776;SDS011;54079;44.540;18.784;2022-07-09T08:39:10;1.88;;;1.10;;
55776;SDS011;54079;44.540;18.784;2022-07-09T08:41:36;2.03;;;1.25;;
55776;SDS011;54079;44.540;18.784;2022-07-09T08:44:03;2.08;;;0.95;;
55776;SDS011;54079;44.540;18.784;2022-07-09T08:46:32;1.90;;;1.15;;
55776;SDS011;54079;44.540;18.784;2022-07-09T08:48:58;2.88;;;1.23;;
55776;SDS011;54079;44.540;18.784;2022-07-09T08:51:25;2.45;;;1.40;;
55776;SDS011;54079;44.540;18.784;2022-07-09T08:53:53;2.67;;;1.48;;
55776;SDS011;54079;44.540;18.784;2022-07-09T08:56:20;2.30;;;1.20;;
55776;SDS011;54079;44.540;18.784;2022-07-09T08:58:46;1.95;;;1.33;;
55776;SDS011;54079;44.540;18.784;2022-07-09T09:01:13;2.33;;;1.10;;
55776;SDS011;54079;44.540;18.784;2022-07-09T09:03:41;2.22;;;1.27;;
55776;SDS011;54079;44.540;18.784;2022-07-09T09:06:08;4.35;;;1.15;;
55776;SDS011;54079;44.540;18.784;2022-07-09T09:11:06;1.95;;;0.82;;
55776;SDS011;54079;44.540;18.784;2022-07-09T09:13:37;2.28;;;1.50;;
55776;SDS011;54079;44.540;18.784;2022-07-09T09:16:06;1.98;;;1.60;;
55776;SDS011;54079;44.540;18.784;2022-07-09T09:18:39;1.67;;;1.58;;
55776;SDS011;54079;44.540;18.784;2022-07-09T09:21:06;2.03;;;1.27;;
55776;SDS011;54079;44.540;18.784;2022-07-09T09:23:40;2.97;;;1.48;;
55776;SDS011;54079;44.540;18.784;2022-07-09T09:26:13;1.08;;;0.88;;
55776;SDS011;54079;44.540;18.784;2022-07-09T09:28:46;1.63;;;1.00;;
55776;SDS011;54079;44.540;18.784;2022-07-09T09:31:25;3.30;;;1.85;;
55776;SDS011;54079;44.540;18.784;2022-07-09T09:34:10;2.90;;;1.42;;
55776;SDS011;54079;44.540;18.784;2022-07-09T09:36:38;1.55;;;1.00;;
55776;SDS011;54079;44.540;18.784;2022-07-09T09:39:09;3.60;;;1.20;;
55776;SDS011;54079;44.540;18.784;2022-07-09T09:41:41;2.30;;;1.13;;
55776;SDS011;54079;44.540;18.784;2022-07-09T09:44:10;2.63;;;1.20;;
55776;SDS011;54079;44.540;18.784;2022-07-09T09:46:40;2.55;;;1.10;;
55776;SDS011;54079;44.540;18.784;2022-07-09T09:49:08;2.80;;;1.20;;
55776;SDS011;54079;44.540;18.784;2022-07-09T09:51:37;1.42;;;0.98;;
55776;SDS011;54079;44.540;18.784;2022-07-09T09:54:07;1.88;;;1.35;;
55776;SDS011;54079;44.540;18.784;2022-07-09T09:56:34;2.13;;;1.55;;
55776;SDS011;54079;44.540;18.784;2022-07-09T09:59:01;4.03;;;1.10;;
55776;SDS011;54079;44.540;18.784;2022-07-09T10:01:27;1.33;;;1.23;;
55776;SDS011;54079;44.540;18.784;2022-07-09T10:03:54;1.70;;;1.25;;
55776;SDS011;54079;44.540;18.784;2022-07-09T10:06:21;2.38;;;1.00;;
55776;SDS011;54079;44.540;18.784;2022-07-09T10:08:48;1.80;;;1.20;;
55776;SDS011;54079;44.540;18.784;2022-07-09T10:11:14;1.58;;;1.02;;
55776;SDS011;54079;44.540;18.784;2022-07-09T10:13:52;1.77;;;1.20;;
55776;SDS011;54079;44.540;18.784;2022-07-09T10:16:31;2.38;;;1.55;;
55776;SDS011;54079;44.540;18.784;2022-07-09T10:19:01;1.48;;;1.10;;
55776;SDS011;54079;44.540;18.784;2022-07-09T10:21:34;1.80;;;1.20;;
55776;SDS011;54079;44.540;18.784;2022-07-09T10:24:08;1.27;;;1.10;;
55776;SDS011;54079;44.540;18.784;2022-07-09T10:26:44;1.20;;;1.10;;
55776;SDS011;54079;44.540;18.784;2022-07-09T10:29:20;1.20;;;1.08;;
55776;SDS011;54079;44.540;18.784;2022-07-09T10:31:54;3.65;;;2.17;;
55776;SDS011;54079;44.540;18.784;2022-07-09T10:34:38;4.40;;;3.63;;
55776;SDS011;54079;44.540;18.784;2022-07-09T10:37:12;9.23;;;7.97;;
55776;SDS011;54079;44.540;18.784;2022-07-09T10:39:38;12.48;;;11.15;;
55776;SDS011;54079;44.540;18.784;2022-07-09T10:42:20;6.30;;;4.90;;
55776;SDS011;54079;44.540;18.784;2022-07-09T10:44:50;9.23;;;7.93;;
55776;SDS011;54079;44.540;18.784;2022-07-09T10:47:17;3.40;;;2.83;;
55776;SDS011;54079;44.540;18.784;2022-07-09T10:49:43;4.22;;;1.98;;
55776;SDS011;54079;44.540;18.784;2022-07-09T10:52:09;2.38;;;1.92;;
55776;SDS011;54079;44.540;18.784;2022-07-09T10:54:44;2.97;;;1.38;;
55776;SDS011;54079;44.540;18.784;2022-07-09T10:57:12;1.92;;;1.77;;
55776;SDS011;54079;44.540;18.784;2022-07-09T10:59:38;3.47;;;2.25;;
55776;SDS011;54079;44.540;18.784;2022-07-09T11:02:16;3.03;;;1.40;;
55776;SDS011;54079;44.540;18.784;2022-07-09T11:04:47;2.45;;;2.08;;
55776;SDS011;54079;44.540;18.784;2022-07-09T11:07:23;2.83;;;1.63;;
55776;SDS011;54079;44.540;18.784;2022-07-09T11:09:50;2.45;;;1.85;;
55776;SDS011;54079;44.540;18.784;2022-07-09T11:12:17;3.92;;;2.72;;
55776;SDS011;54079;44.540;18.784;2022-07-09T11:14:45;3.10;;;1.80;;
55776;SDS011;54079;44.540;18.784;2022-07-09T11:17:19;4.47;;;2.30;;
55776;SDS011;54079;44.540;18.784;2022-07-09T11:19:46;2.55;;;1.30;;
55776;SDS011;54079;44.540;18.784;2022-07-09T11:22:13;2.72;;;1.60;;
55776;SDS011;54079;44.540;18.784;2022-07-09T11:24:40;1.48;;;1.35;;
55776;SDS011;54079;44.540;18.784;2022-07-09T11:27:07;3.22;;;1.55;;
55776;SDS011;54079;44.540;18.784;2022-07-09T11:29:34;3.67;;;2.50;;
55776;SDS011;54079;44.540;18.784;2022-07-09T11:32:01;4.00;;;3.60;;
55776;SDS011;54079;44.540;18.784;2022-07-09T11:34:27;3.90;;;3.00;;
55776;SDS011;54079;44.540;18.784;2022-07-09T11:36:56;6.75;;;5.75;;
55776;SDS011;54079;44.540;18.784;2022-07-09T11:39:24;3.00;;;2.75;;
55776;SDS011;54079;44.540;18.784;2022-07-09T11:41:53;3.53;;;3.20;;
55776;SDS011;54079;44.540;18.784;2022-07-09T11:44:23;4.80;;;4.40;;
55776;SDS011;54079;44.540;18.784;2022-07-09T11:47:03;4.80;;;4.32;;
55776;SDS011;54079;44.540;18.784;2022-07-09T11:52:27;9.65;;;8.70;;
55776;SDS011;54079;44.540;18.784;2022-07-09T11:55:02;7.40;;;6.75;;
55776;SDS011;54079;44.540;18.784;2022-07-09T11:57:33;7.93;;;7.07;;
55776;SDS011;54079;44.540;18.784;2022-07-09T12:00:01;6.28;;;5.22;;
55776;SDS011;54079;44.540;18.784;2022-07-09T12:02:45;5.63;;;5.13;;
55776;SDS011;54079;44.540;18.784;2022-07-09T12:05:11;2.67;;;1.70;;
55776;SDS011;54079;44.540;18.784;2022-07-09T12:07:37;3.20;;;2.15;;
55776;SDS011;54079;44.540;18.784;2022-07-09T12:10:04;2.53;;;1.95;;
55776;SDS011;54079;44.540;18.784;2022-07-09T12:15:02;11.10;;;9.45;;
55776;SDS011;54079;44.540;18.784;2022-07-09T12:17:30;6.07;;;5.30;;
55776;SDS011;54079;44.540;18.784;2022-07-09T12:19:57;12.07;;;10.65;;
55776;SDS011;54079;44.540;18.784;2022-07-09T12:22:23;8.93;;;7.75;;
55776;SDS011;54079;44.540;18.784;2022-07-09T12:24:50;6.82;;;5.15;;
55776;SDS011;54079;44.540;18.784;2022-07-09T12:27:17;4.72;;;4.28;;
55776;SDS011;54079;44.540;18.784;2022-07-09T12:29:44;6.10;;;4.82;;
55776;SDS011;54079;44.540;18.784;2022-07-09T12:32:11;4.00;;;3.60;;
55776;SDS011;54079;44.540;18.784;2022-07-09T12:34:37;3.50;;;3.03;;
55776;SDS011;54079;44.540;18.784;2022-07-09T12:37:03;5.72;;;2.75;;
55776;SDS011;54079;44.540;18.784;2022-07-09T12:39:29;3.22;;;2.92;;
55776;SDS011;54079;44.540;18.784;2022-07-09T12:41:55;3.22;;;2.72;;
55776;SDS011;54079;44.540;18.784;2022-07-09T12:44:21;1.98;;;1.70;;
55776;SDS011;54079;44.540;18.784;2022-07-09T12:46:47;4.40;;;4.00;;
55776;SDS011;54079;44.540;18.784;2022-07-09T12:49:13;9.30;;;8.45;;
55776;SDS011;54079;44.540;18.784;2022-07-09T12:51:43;6.47;;;5.95;;
55776;SDS011;54079;44.540;18.784;2022-07-09T12:54:09;5.15;;;4.05;;
55776;SDS011;54079;44.540;18.784;2022-07-09T12:56:35;3.33;;;3.05;;
55776;SDS011;54079;44.540;18.784;2022-07-09T12:59:02;3.42;;;3.13;;
55776;SDS011;54079;44.540;18.784;2022-07-09T13:01:28;4.15;;;3.58;;
55776;SDS011;54079;44.540;18.784;2022-07-09T13:03:54;7.18;;;5.75;;
55776;SDS011;54079;44.540;18.784;2022-07-09T13:06:20;10.13;;;9.18;;
55776;SDS011;54079;44.540;18.784;2022-07-09T13:08:56;3.88;;;3.30;;
55776;SDS011;54079;44.540;18.784;2022-07-09T13:11:25;9.40;;;8.45;;
55776;SDS011;54079;44.540;18.784;2022-07-09T13:13:51;5.45;;;4.93;;
55776;SDS011;54079;44.540;18.784;2022-07-09T13:16:18;2.03;;;1.83;;
55776;SDS011;54079;44.540;18.784;2022-07-09T13:18:43;4.50;;;4.10;;
55776;SDS011;54079;44.540;18.784;2022-07-09T13:21:09;4.30;;;3.53;;
55776;SDS011;54079;44.540;18.784;2022-07-09T13:23:35;2.28;;;2.15;;
55776;SDS011;54079;44.540;18.784;2022-07-09T13:26:01;4.13;;;2.35;;
55776;SDS011;54079;44.540;18.784;2022-07-09T13:28:27;1.98;;;1.83;;
55776;SDS011;54079;44.540;18.784;2022-07-09T13:30:53;2.63;;;2.05;;
55776;SDS011;54079;44.540;18.784;2022-07-09T13:33:19;2.20;;;1.73;;
55776;SDS011;54079;44.540;18.784;2022-07-09T13:35:45;1.80;;;1.15;;
55776;SDS011;54079;44.540;18.784;2022-07-09T13:38:11;2.08;;;1.50;;
55776;SDS011;54079;44.540;18.784;2022-07-09T13:40:38;1.73;;;1.13;;
55776;SDS011;54079;44.540;18.784;2022-07-09T13:43:04;1.45;;;1.35;;
55776;SDS011;54079;44.540;18.784;2022-07-09T13:45:30;2.65;;;0.90;;
55776;SDS011;54079;44.540;18.784;2022-07-09T13:47:56;1.30;;;1.20;;
55776;SDS011;54079;44.540;18.784;2022-07-09T13:50:22;2.38;;;2.17;;
55776;SDS011;54079;44.540;18.784;2022-07-09T13:52:48;3.67;;;1.33;;
55776;SDS011;54079;44.540;18.784;2022-07-09T13:55:14;2.17;;;1.20;;
55776;SDS011;54079;44.540;18.784;2022-07-09T13:57:40;1.20;;;0.80;;
55776;SDS011;54079;44.540;18.784;2022-07-09T14:00:06;1.50;;;1.00;;
55776;SDS011;54079;44.540;18.784;2022-07-09T14:02:33;1.10;;;0.98;;
55776;SDS011;54079;44.540;18.784;2022-07-09T14:05:03;3.33;;;0.95;;
55776;SDS011;54079;44.540;18.784;2022-07-09T14:07:30;8.35;;;1.33;;
55776;SDS011;54079;44.540;18.784;2022-07-09T14:09:56;1.20;;;1.02;;
55776;SDS011;54079;44.540;18.784;2022-07-09T14:12:23;1.20;;;1.10;;
55776;SDS011;54079;44.540;18.784;2022-07-09T14:14:52;1.20;;;1.10;;
55776;SDS011;54079;44.540;18.784;2022-07-09T14:17:18;2.58;;;1.02;;
55776;SDS011;54079;44.540;18.784;2022-07-09T14:19:45;1.58;;;1.48;;
55776;SDS011;54079;44.540;18.784;2022-07-09T14:22:11;1.05;;;0.98;;
55776;SDS011;54079;44.540;18.784;2022-07-09T14:24:37;1.00;;;0.88;;
55776;SDS011;54079;44.540;18.784;2022-07-09T14:27:03;1.85;;;0.88;;
55776;SDS011;54079;44.540;18.784;2022-07-09T14:29:29;2.03;;;1.02;;
55776;SDS011;54079;44.540;18.784;2022-07-09T14:31:55;2.60;;;1.20;;
55776;SDS011;54079;44.540;18.784;2022-07-09T14:34:21;1.58;;;1.20;;
55776;SDS011;54079;44.540;18.784;2022-07-09T14:36:48;2.10;;;1.17;;
55776;SDS011;54079;44.540;18.784;2022-07-09T14:39:15;2.08;;;1.17;;
55776;SDS011;54079;44.540;18.784;2022-07-09T14:41:42;1.50;;;1.38;;